Hauptseite
METAR-TAF:

METAR-TAF

Flughäfen :

Farnborough Airfield

Farnborough, England

Breite: 51-17N, Länge: 000-46W, Höhe: 65 m

Beobachtung

Neuester Wetterbericht von vor 37 Minuten, um 23:50 UTC
Wind 2 kt aus Süd
Temperatur 12°C
Luftfeuchtigkeit 94%
Luftdruck 1005 hPa
Sichtweite: 5000 m
trockener Dunst

METAR: EGLF 232350Z AUTO 17002KT 5000 HZ OVC004/// 12/11 Q1005

Zeit: 01:27 (00:27 UTC)

Prognose

Neuester Wetterbericht von vor 2 Stunden und 27 Minuten, um 22:00 UTC
Gültige Prognose vom 23 um 21 UTC bis 23 um 23 UTC
Wind 3 kt aus unterschiedlichen Richtungen
Sichtweite 10 km oder mehr
Durchbrochene Bewölkung in der Höhe von 1000 ft
Zeitweise
vom 23 um 21 UTC bis 23 um 23 UTC
Sichtweite: 3000 m
Durchbrochene Bewölkung in der Höhe von 600 ft
Leichtregen, Sprühregen

TAF: EGLF 232200Z 2321/2323 VRB03KT 9999 BKN010 TEMPO 2321/2323 3000 -RADZ BKN006

Wetterbeobachtungen und Prognosen von mehr als 4000 Flughäfen (METAR und TAF Bericht).

Die verfügbaren Stationen werden durch gelbe und rote Markierungen auf der Karte dargestellt.

Führen Sie die Maus auf sie, um den Namen der Station zu sehen.

Darauf klicken, um die Beobachtung von Wetterbeobachtungen und Prognosen zu sehen.

Um die Karte zu ändern : klicken Sie auf den grünen Tasten mit einem schwarzen Kreuz Zum Vergrößern, auf den grünen Button mit einem Gedankenstrich zu verkleinern, oder auf die grünen Pfeile für benachbarte Karten.


METAR-TAF: